Pathein, Burma
Current Conditions -  °F | °C
As of 11:00 PM on Thursday 18 Dec 2014 (Local Time) from VYYY Reporting Station
Clear Clear  
Wind Chill: 23°   Ceiling: Unl
Heat Index: 23°   Visibility: 4mi
Dew Point: 20°   Wind: 2mph
Humidity: 83%   Direction: 170°S
Pressure: 30"   Gusts: NA
Location:  16.78°N, 94.73°E
Report Text: VYYY 181700Z 17002KT 6000 NSC 23/20 Q1016 NOSIG
Loading
Personal Weather Stations






























Interactive Weather Map New forecast layout! Learn more

10-Day Weather Forecast

Advertisements
Track Severe Weather on mobile